createdAt,value
2023-05-05T00:01:54.521Z,19.50
2023-05-05T00:04:24.213Z,22.87
2023-05-05T00:06:51.181Z,24.42
2023-05-05T00:09:18.206Z,26.73
2023-05-05T00:11:45.129Z,30.42
2023-05-05T00:14:12.049Z,29.25
2023-05-05T00:16:38.954Z,31.63
2023-05-05T00:19:06.845Z,29.50
2023-05-05T00:21:34.769Z,29.77
2023-05-05T00:24:02.746Z,27.58
2023-05-05T00:26:29.895Z,33.50
2023-05-05T00:28:57.028Z,29.40
2023-05-05T00:31:23.904Z,27.50
2023-05-05T00:33:50.755Z,26.35
2023-05-05T00:36:17.844Z,31.83
2023-05-05T00:38:44.725Z,23.10
2023-05-05T00:41:11.646Z,23.87
2023-05-05T00:43:39.543Z,22.52
2023-05-05T00:46:26.080Z,25.87
2023-05-05T00:48:53.269Z,22.87
2023-05-05T00:51:20.641Z,26.17
2023-05-05T00:53:48.278Z,23.27
2023-05-05T00:56:16.878Z,22.15
2023-05-05T00:58:43.871Z,22.27
2023-05-05T01:01:11.893Z,21.53
2023-05-05T01:03:39.915Z,23.60
2023-05-05T01:06:08.203Z,22.97
2023-05-05T01:08:44.230Z,20.57
2023-05-05T01:11:26.807Z,22.13
2023-05-05T01:14:13.714Z,22.20
2023-05-05T01:16:43.143Z,21.10
2023-05-05T01:19:13.096Z,22.63
2023-05-05T01:21:46.921Z,20.90
2023-05-05T01:24:28.253Z,23.10
2023-05-05T01:27:29.200Z,22.90
2023-05-05T01:30:08.958Z,19.30
2023-05-05T01:32:41.319Z,22.30
2023-05-05T01:35:15.472Z,21.27
2023-05-05T01:37:57.434Z,20.60
2023-05-05T01:40:26.951Z,21.10
2023-05-05T01:42:55.781Z,20.93
2023-05-05T01:45:24.945Z,20.53
2023-05-05T01:47:52.166Z,25.03
2023-05-05T01:50:19.053Z,22.70
2023-05-05T01:52:46.115Z,24.33
2023-05-05T01:55:13.038Z,23.90
2023-05-05T01:57:39.899Z,26.27
2023-05-05T02:00:07.841Z,26.00
2023-05-05T02:02:36.199Z,23.97
2023-05-05T02:05:03.418Z,23.80
2023-05-05T02:07:30.373Z,25.95
2023-05-05T02:09:57.280Z,22.90
2023-05-05T02:12:24.158Z,25.00
2023-05-05T02:14:52.038Z,25.07
2023-05-05T02:17:18.902Z,26.80
2023-05-05T02:19:46.795Z,25.97
2023-05-05T02:22:16.543Z,24.47
2023-05-05T02:24:43.826Z,23.80
2023-05-05T02:27:10.858Z,29.20
2023-05-05T02:29:49.140Z,26.50
2023-05-05T02:32:22.477Z,25.57
2023-05-05T02:34:49.675Z,23.10
2023-05-05T02:37:19.968Z,25.47
2023-05-05T02:39:51.765Z,26.57
2023-05-05T02:42:19.722Z,27.33
2023-05-05T02:44:46.731Z,25.10
2023-05-05T02:47:13.746Z,23.83
2023-05-05T02:49:40.596Z,25.83
2023-05-05T02:52:13.316Z,29.33
2023-05-05T02:54:40.382Z,30.07
2023-05-05T02:57:07.422Z,32.40
2023-05-05T02:59:47.521Z,28.77
2023-05-05T03:02:41.810Z,27.90
2023-05-05T03:05:17.423Z,29.70
2023-05-05T03:07:50.123Z,26.67
2023-05-05T03:10:18.653Z,27.77
2023-05-05T03:12:56.747Z,27.00
2023-05-05T03:15:37.857Z,30.17
2023-05-05T03:18:04.734Z,30.37
2023-05-05T03:20:32.584Z,27.80
2023-05-05T03:23:01.595Z,30.57
2023-05-05T03:25:48.661Z,28.07
2023-05-05T03:28:16.018Z,31.20
2023-05-05T03:30:42.904Z,31.03
2023-05-05T03:33:11.359Z,33.63
2023-05-05T03:35:38.258Z,36.77
2023-05-05T03:38:05.106Z,31.63
2023-05-05T03:40:43.746Z,35.60
2023-05-05T03:43:14.345Z,32.43
2023-05-05T03:45:43.246Z,30.03
2023-05-05T03:48:10.191Z,30.60
2023-05-05T03:50:37.697Z,31.30
2023-05-05T03:53:04.649Z,28.60
2023-05-05T03:55:31.538Z,29.50
2023-05-05T03:57:58.406Z,29.10
2023-05-05T04:00:25.327Z,29.07
2023-05-05T04:02:52.236Z,32.10
2023-05-05T04:05:19.976Z,30.80
2023-05-05T04:07:46.801Z,30.58
2023-05-05T04:10:13.692Z,28.77
2023-05-05T04:12:40.609Z,28.70
2023-05-05T04:15:09.004Z,27.93
2023-05-05T04:17:36.084Z,25.20
2023-05-05T04:20:03.078Z,24.02
2023-05-05T04:22:29.938Z,24.13
2023-05-05T04:24:56.912Z,29.23
2023-05-05T04:27:26.193Z,24.40
2023-05-05T04:29:54.107Z,21.63
2023-05-05T04:32:21.026Z,25.07
2023-05-05T04:34:48.003Z,25.70
2023-05-05T04:37:14.866Z,23.50
2023-05-05T04:39:41.721Z,26.90
2023-05-05T04:42:09.072Z,22.43
2023-05-05T04:44:36.022Z,23.20
2023-05-05T04:47:03.135Z,21.73
2023-05-05T04:49:30.427Z,25.80
2023-05-05T04:51:57.322Z,23.83
2023-05-05T04:54:24.260Z,22.80
2023-05-05T04:56:51.224Z,23.40
2023-05-05T04:59:18.189Z,21.33
2023-05-05T05:01:45.287Z,23.23
2023-05-05T05:04:12.881Z,21.03
2023-05-05T05:06:39.716Z,27.37
2023-05-05T05:09:06.635Z,23.67
2023-05-05T05:11:33.473Z,25.10
2023-05-05T05:14:00.301Z,20.47
2023-05-05T05:16:27.281Z,21.23
2023-05-05T05:18:54.827Z,23.03
2023-05-05T05:21:21.727Z,21.15
2023-05-05T05:23:48.577Z,19.67
2023-05-05T05:26:16.743Z,20.63
2023-05-05T05:28:43.627Z,20.47
2023-05-05T05:31:10.466Z,23.10
2023-05-05T05:33:38.411Z,21.53
2023-05-05T05:36:06.420Z,21.67
2023-05-05T05:38:33.386Z,20.27
2023-05-05T05:41:00.364Z,21.35
2023-05-05T05:43:27.210Z,20.63
2023-05-05T05:45:54.215Z,21.23
2023-05-05T05:48:22.249Z,17.50
2023-05-05T05:50:49.112Z,20.10
2023-05-05T05:53:16.162Z,18.55
2023-05-05T05:55:43.029Z,20.00
2023-05-05T05:58:09.860Z,21.67
2023-05-05T06:00:37.754Z,17.25
2023-05-05T06:03:04.681Z,19.00
2023-05-05T06:05:32.788Z,15.73
2023-05-05T06:07:59.654Z,21.08
2023-05-05T06:10:28.373Z,17.85
2023-05-05T06:12:55.666Z,21.90
2023-05-05T06:15:22.711Z,15.13
2023-05-05T06:17:49.595Z,17.83
2023-05-05T06:20:16.649Z,15.55
2023-05-05T06:22:44.492Z,15.93
2023-05-05T06:25:11.746Z,19.27
2023-05-05T06:27:38.634Z,17.23
2023-05-05T06:30:06.961Z,19.80
2023-05-05T06:32:34.101Z,19.65
2023-05-05T06:35:01.024Z,14.38
2023-05-05T06:37:27.868Z,16.90
2023-05-05T06:39:54.764Z,15.15
2023-05-05T06:42:21.590Z,13.88
2023-05-05T06:44:48.488Z,15.75
2023-05-05T06:47:15.933Z,12.93
2023-05-05T06:49:43.779Z,14.02
2023-05-05T06:52:10.633Z,15.55
2023-05-05T06:54:37.506Z,17.45
2023-05-05T06:57:05.372Z,16.50
2023-05-05T06:59:32.546Z,12.70
2023-05-05T07:01:59.610Z,14.75
2023-05-05T07:04:26.951Z,15.90
2023-05-05T07:06:55.284Z,12.77
2023-05-05T07:09:22.170Z,14.05
2023-05-05T07:11:49.060Z,13.63
2023-05-05T07:14:15.958Z,11.23
2023-05-05T07:16:42.901Z,14.10
2023-05-05T07:19:09.794Z,17.27
2023-05-05T07:21:36.948Z,14.10
2023-05-05T07:24:04.214Z,16.30
2023-05-05T07:26:31.206Z,13.05
2023-05-05T07:28:58.958Z,15.10
2023-05-05T07:31:26.630Z,13.63
2023-05-05T07:33:53.763Z,14.25
2023-05-05T07:36:27.984Z,12.00
2023-05-05T07:38:54.919Z,12.20
2023-05-05T07:41:21.923Z,13.88
2023-05-05T07:43:48.798Z,14.50
2023-05-05T07:46:15.711Z,12.88
2023-05-05T07:48:42.746Z,14.23
2023-05-05T07:51:10.117Z,13.93
2023-05-05T07:53:37.381Z,14.32
2023-05-05T07:56:04.294Z,12.55
2023-05-05T07:58:31.203Z,9.95
2023-05-05T08:00:58.064Z,8.85
2023-05-05T08:03:25.255Z,10.35
2023-05-05T08:05:54.141Z,11.27
2023-05-05T08:08:24.802Z,9.05
2023-05-05T08:10:53.195Z,7.70
2023-05-05T08:13:20.494Z,9.23
2023-05-05T08:15:47.625Z,8.68
2023-05-05T08:18:14.702Z,6.65
2023-05-05T08:20:41.749Z,8.77
2023-05-05T08:23:08.648Z,7.45
2023-05-05T08:25:35.528Z,8.80
2023-05-05T08:28:02.475Z,8.60
2023-05-05T08:30:29.519Z,8.80
2023-05-05T08:32:56.574Z,10.93
2023-05-05T08:35:24.243Z,11.25
2023-05-05T08:37:51.850Z,10.18
2023-05-05T08:40:20.894Z,10.80
2023-05-05T08:42:48.204Z,13.07
2023-05-05T08:45:15.944Z,10.30
2023-05-05T08:47:43.544Z,15.27
2023-05-05T08:50:11.210Z,16.00
2023-05-05T08:52:44.129Z,12.55
2023-05-05T08:55:26.546Z,10.30
2023-05-05T08:57:56.513Z,10.52
2023-05-05T09:00:23.915Z,16.20
2023-05-05T09:02:50.878Z,8.65
2023-05-05T09:05:18.278Z,8.15
2023-05-05T09:07:45.346Z,8.70
2023-05-05T09:10:12.577Z,7.90
2023-05-05T09:12:42.173Z,11.93
2023-05-05T09:15:10.657Z,7.68
2023-05-05T09:17:38.354Z,10.90
2023-05-05T09:20:09.286Z,16.45
2023-05-05T09:22:40.603Z,12.25
2023-05-05T09:25:14.730Z,10.93
2023-05-05T09:27:43.360Z,10.18
2023-05-05T09:30:11.687Z,15.85
2023-05-05T09:32:46.048Z,17.08
2023-05-05T09:35:13.047Z,11.85
2023-05-05T09:37:39.911Z,11.20
2023-05-05T09:40:09.191Z,19.13
2023-05-05T09:42:37.210Z,15.20
2023-05-05T09:45:17.168Z,11.48
2023-05-05T09:47:45.724Z,10.38
2023-05-05T09:50:16.324Z,19.55
2023-05-05T09:52:43.362Z,10.25
2023-05-05T09:55:19.374Z,15.02
2023-05-05T09:57:47.497Z,13.80
2023-05-05T10:00:14.990Z,14.88
2023-05-05T10:02:42.094Z,12.93
2023-05-05T10:05:09.326Z,16.33
2023-05-05T10:07:37.007Z,17.52
2023-05-05T10:10:05.141Z,16.02
2023-05-05T10:12:32.662Z,20.08
2023-05-05T10:15:02.374Z,18.52
2023-05-05T10:20:18.847Z,12.85
2023-05-05T10:22:55.154Z,15.60
2023-05-05T10:25:31.684Z,16.60
2023-05-05T10:28:00.249Z,10.48
2023-05-05T10:30:30.114Z,16.63
2023-05-05T10:33:31.664Z,11.35
2023-05-05T10:36:01.923Z,12.95
2023-05-05T10:38:30.806Z,15.32
2023-05-05T10:40:59.273Z,12.73
2023-05-05T10:43:26.829Z,14.48
2023-05-05T10:45:53.948Z,18.77
2023-05-05T10:48:45.078Z,14.73
2023-05-05T10:51:39.838Z,10.57
2023-05-05T10:54:16.422Z,14.68
2023-05-05T10:56:43.489Z,15.52
2023-05-05T10:59:38.513Z,21.50
2023-05-05T11:02:24.134Z,17.98
2023-05-05T11:05:23.714Z,12.00
2023-05-05T11:07:51.638Z,19.38
2023-05-05T11:10:20.802Z,23.50
2023-05-05T11:13:03.237Z,31.55
2023-05-05T11:15:30.385Z,23.80
2023-05-05T11:17:58.181Z,23.65
2023-05-05T11:20:39.606Z,19.15
2023-05-05T11:23:06.653Z,28.83
2023-05-05T11:25:37.408Z,23.83
2023-05-05T11:28:21.266Z,18.52
2023-05-05T11:30:58.813Z,22.92
2023-05-05T11:33:32.726Z,18.23
2023-05-05T11:36:07.146Z,20.25
2023-05-05T11:39:05.557Z,23.25
2023-05-05T11:41:32.540Z,18.00
2023-05-05T11:44:29.654Z,15.18
2023-05-05T11:47:02.853Z,11.80
2023-05-05T11:49:32.900Z,15.30
2023-05-05T11:52:12.719Z,19.05
2023-05-05T11:54:41.562Z,26.73
2023-05-05T11:57:09.105Z,15.68
2023-05-05T11:59:37.517Z,11.77
2023-05-05T12:02:04.714Z,13.27
2023-05-05T12:04:32.080Z,10.68
2023-05-05T12:06:59.134Z,12.10
2023-05-05T12:09:26.688Z,9.00
2023-05-05T12:11:57.604Z,12.93
2023-05-05T12:14:25.092Z,11.98
2023-05-05T12:16:58.082Z,12.20
2023-05-05T12:19:30.131Z,10.90
2023-05-05T12:21:57.214Z,11.55
2023-05-05T12:24:24.133Z,10.40
2023-05-05T12:26:51.770Z,13.52
2023-05-05T12:29:26.219Z,10.13
2023-05-05T12:31:53.154Z,7.55
2023-05-05T12:34:21.354Z,9.88
2023-05-05T12:36:48.265Z,9.60
2023-05-05T12:39:15.289Z,8.20
2023-05-05T12:41:42.277Z,13.98
2023-05-05T12:44:09.303Z,9.45
2023-05-05T12:46:49.174Z,7.45
2023-05-05T12:49:16.952Z,8.50
2023-05-05T12:51:55.093Z,7.65
2023-05-05T12:54:23.875Z,10.50
2023-05-05T12:56:51.315Z,10.13
2023-05-05T12:59:21.271Z,14.35
2023-05-05T13:01:54.471Z,15.77
2023-05-05T13:04:23.083Z,17.65
2023-05-05T13:07:11.689Z,18.95
2023-05-05T13:09:38.715Z,24.83
2023-05-05T13:12:07.180Z,22.65
2023-05-05T13:14:36.998Z,20.63
2023-05-05T13:17:03.964Z,18.95
2023-05-05T13:19:30.963Z,24.27
2023-05-05T13:21:58.421Z,23.65
2023-05-05T13:24:37.834Z,19.63
2023-05-05T13:27:12.696Z,25.65
2023-05-05T13:29:41.733Z,30.48
2023-05-05T13:32:08.667Z,18.80
2023-05-05T13:34:35.742Z,23.30
2023-05-05T13:37:02.621Z,22.08
2023-05-05T13:39:29.450Z,21.63
2023-05-05T13:41:56.353Z,26.20
2023-05-05T13:44:23.214Z,24.48
2023-05-05T13:46:50.128Z,28.23
2023-05-05T13:49:17.325Z,22.88
2023-05-05T13:51:45.200Z,27.90
2023-05-05T13:54:12.122Z,35.90
2023-05-05T13:56:39.121Z,32.50
2023-05-05T13:59:05.990Z,31.27
2023-05-05T14:01:32.947Z,26.73
2023-05-05T14:04:00.974Z,26.95
2023-05-05T14:06:29.781Z,26.60
2023-05-05T14:08:56.705Z,28.27
2023-05-05T14:11:23.572Z,29.77
2023-05-05T14:13:50.459Z,30.80
2023-05-05T14:16:17.396Z,22.48
2023-05-05T14:18:44.377Z,24.60
2023-05-05T14:21:11.306Z,23.13
2023-05-05T14:23:38.191Z,25.48
2023-05-05T14:26:05.140Z,22.23
2023-05-05T14:28:32.026Z,18.80
2023-05-05T14:30:58.869Z,26.30
2023-05-05T14:33:25.905Z,23.35
2023-05-05T14:35:52.778Z,18.75
2023-05-05T14:38:19.768Z,17.83
2023-05-05T14:40:46.695Z,20.70
2023-05-05T14:43:13.573Z,18.77
2023-05-05T14:45:40.461Z,20.65
2023-05-05T14:48:07.400Z,22.15
2023-05-05T14:50:34.272Z,17.20
2023-05-05T14:53:01.205Z,16.38
2023-05-05T14:55:28.130Z,15.30
2023-05-05T14:57:54.987Z,16.98
2023-05-05T15:00:21.855Z,17.63
2023-05-05T15:02:48.852Z,15.27
2023-05-05T15:05:16.015Z,14.77
2023-05-05T15:07:43.047Z,15.85
2023-05-05T15:10:10.398Z,15.05
2023-05-05T15:12:37.346Z,15.27
2023-05-05T15:15:05.748Z,17.02
2023-05-05T15:17:32.771Z,16.55
2023-05-05T15:19:59.673Z,13.13
2023-05-05T15:22:26.663Z,11.75
2023-05-05T15:24:53.510Z,15.20
2023-05-05T15:27:20.348Z,15.10
2023-05-05T15:29:47.296Z,17.92
2023-05-05T15:32:14.272Z,12.10
2023-05-05T15:34:41.289Z,18.13
2023-05-05T15:37:08.234Z,9.38
2023-05-05T15:39:35.090Z,11.82
2023-05-05T15:42:05.038Z,13.98
2023-05-05T15:44:32.059Z,15.30
2023-05-05T15:46:59.005Z,18.55
2023-05-05T15:49:27.959Z,13.60
2023-05-05T15:51:54.871Z,13.38
2023-05-05T15:54:21.751Z,17.73
2023-05-05T15:56:49.588Z,13.40
2023-05-05T15:59:16.455Z,10.25
2023-05-05T16:01:43.415Z,13.15
2023-05-05T16:04:10.400Z,12.57
2023-05-05T16:06:37.238Z,13.35
2023-05-05T16:09:04.583Z,13.40
2023-05-05T16:11:31.428Z,18.42
2023-05-05T16:13:59.965Z,16.13
2023-05-05T16:16:27.183Z,8.77
2023-05-05T16:18:54.096Z,11.20
2023-05-05T16:21:20.957Z,15.50
2023-05-05T16:23:47.919Z,12.77
2023-05-05T16:26:14.750Z,9.50
2023-05-05T16:28:41.661Z,12.23
2023-05-05T16:31:10.773Z,12.00
2023-05-05T16:33:43.561Z,7.10
2023-05-05T16:36:11.504Z,8.93
2023-05-05T16:38:39.047Z,11.32
2023-05-05T16:41:07.245Z,14.25
2023-05-05T16:43:34.849Z,13.95
2023-05-05T16:46:03.858Z,10.80
2023-05-05T16:48:30.706Z,13.43
2023-05-05T16:50:57.911Z,12.93
2023-05-05T16:53:25.091Z,15.68
2023-05-05T16:55:52.603Z,14.55
2023-05-05T16:58:20.387Z,13.63
2023-05-05T17:00:49.261Z,12.43
2023-05-05T17:03:19.225Z,11.52
2023-05-05T17:05:49.667Z,12.98
2023-05-05T17:08:16.961Z,13.50
2023-05-05T17:10:44.588Z,14.25
2023-05-05T17:13:13.226Z,10.13
2023-05-05T17:15:40.588Z,11.98
2023-05-05T17:18:07.972Z,18.25
2023-05-05T17:20:34.972Z,12.55
2023-05-05T17:23:05.209Z,12.73
2023-05-05T17:25:33.210Z,14.73
2023-05-05T17:28:00.130Z,11.75
2023-05-05T17:30:27.022Z,8.55
2023-05-05T17:32:54.051Z,11.60
2023-05-05T17:35:21.329Z,10.98
2023-05-05T17:37:48.185Z,10.20
2023-05-05T17:40:15.053Z,11.88
2023-05-05T17:42:41.952Z,11.95
2023-05-05T17:45:10.643Z,16.08
2023-05-05T17:47:37.778Z,14.35
2023-05-05T17:50:07.121Z,9.43
2023-05-05T17:52:33.995Z,12.32
2023-05-05T17:55:00.923Z,13.85
2023-05-05T17:57:28.683Z,15.07
2023-05-05T17:59:55.653Z,9.77
2023-05-05T18:02:23.916Z,9.38
2023-05-05T18:04:50.984Z,11.50
2023-05-05T18:07:17.891Z,9.95
2023-05-05T18:09:44.844Z,9.90
2023-05-05T18:12:11.855Z,17.55
2023-05-05T18:14:38.693Z,14.65
2023-05-05T18:17:05.581Z,10.57
2023-05-05T18:19:33.671Z,11.30
2023-05-05T18:22:00.597Z,9.10
2023-05-05T18:24:28.525Z,13.98
2023-05-05T18:26:55.534Z,13.68
2023-05-05T18:29:22.567Z,8.68
2023-05-05T18:31:53.055Z,15.18
2023-05-05T18:34:21.145Z,11.77
2023-05-05T18:36:51.051Z,16.88
2023-05-05T18:39:17.992Z,14.88
2023-05-05T18:41:44.913Z,13.85
2023-05-05T18:44:11.952Z,13.35
2023-05-05T18:46:38.899Z,13.27
2023-05-05T18:49:05.870Z,16.35
2023-05-05T18:51:32.791Z,12.63
2023-05-05T18:54:00.873Z,13.63
2023-05-05T18:56:27.900Z,8.18
2023-05-05T18:58:54.820Z,11.88
2023-05-05T19:01:24.855Z,14.93
2023-05-05T19:03:51.788Z,14.73
2023-05-05T19:06:18.726Z,11.60
2023-05-05T19:08:46.023Z,10.13
2023-05-05T19:11:14.801Z,12.57
2023-05-05T19:13:41.824Z,13.32
2023-05-05T19:16:08.822Z,11.40
2023-05-05T19:18:35.749Z,11.07
2023-05-05T19:21:02.758Z,13.13
2023-05-05T19:23:29.726Z,14.98
2023-05-05T19:25:56.554Z,13.05
2023-05-05T19:28:23.563Z,15.90
2023-05-05T19:30:50.404Z,12.57
2023-05-05T19:33:17.364Z,13.55
2023-05-05T19:35:44.464Z,14.60
2023-05-05T19:38:12.011Z,15.35
2023-05-05T19:40:39.288Z,10.27
2023-05-05T19:43:07.409Z,14.95
2023-05-05T19:45:34.286Z,12.20
2023-05-05T19:48:01.756Z,12.25
2023-05-05T19:50:30.352Z,9.23
2023-05-05T19:52:57.831Z,13.15
2023-05-05T19:55:24.892Z,12.10
2023-05-05T19:57:51.778Z,16.90
2023-05-05T20:00:19.678Z,15.57
2023-05-05T20:02:47.426Z,14.55
2023-05-05T20:05:16.396Z,15.73
2023-05-05T20:07:44.326Z,12.98
2023-05-05T20:10:13.369Z,18.65
2023-05-05T20:12:48.458Z,15.13
2023-05-05T20:15:19.040Z,10.32
2023-05-05T20:17:49.243Z,13.30
2023-05-05T20:20:21.386Z,11.38
2023-05-05T20:22:48.472Z,11.57
2023-05-05T20:25:16.402Z,12.68
2023-05-05T20:27:43.751Z,17.10
2023-05-05T20:30:12.123Z,14.60
2023-05-05T20:32:39.142Z,15.00
2023-05-05T20:35:07.666Z,15.00
2023-05-05T20:37:34.597Z,16.65
2023-05-05T20:40:02.557Z,15.80
2023-05-05T20:42:29.894Z,14.88
2023-05-05T20:44:57.044Z,17.42
2023-05-05T20:47:24.385Z,17.77
2023-05-05T20:49:53.378Z,16.95
2023-05-05T20:52:21.257Z,17.40
2023-05-05T20:54:49.196Z,15.65
2023-05-05T20:57:16.016Z,19.38
2023-05-05T20:59:42.916Z,16.02
2023-05-05T21:02:09.793Z,17.33
2023-05-05T21:04:36.697Z,17.20
2023-05-05T21:07:03.739Z,18.95
2023-05-05T21:09:31.521Z,20.75
2023-05-05T21:11:58.530Z,18.40
2023-05-05T21:14:25.477Z,16.42
2023-05-05T21:16:52.352Z,18.02
2023-05-05T21:19:19.342Z,23.83
2023-05-05T21:21:46.286Z,19.05
2023-05-05T21:24:13.261Z,19.45
2023-05-05T21:26:45.951Z,23.30
2023-05-05T21:29:12.873Z,19.52
2023-05-05T21:31:39.774Z,19.05
2023-05-05T21:34:06.770Z,21.27
2023-05-05T21:36:34.022Z,21.05
2023-05-05T21:39:01.184Z,20.48
2023-05-05T21:41:28.323Z,21.23
2023-05-05T21:43:56.226Z,17.52
2023-05-05T21:46:23.285Z,21.20
2023-05-05T21:48:50.339Z,23.80
2023-05-05T21:51:17.482Z,23.65
2023-05-05T21:53:44.449Z,20.03
2023-05-05T21:56:11.474Z,16.67
2023-05-05T21:58:38.399Z,18.65
2023-05-05T22:01:05.525Z,21.38
2023-05-05T22:03:34.330Z,21.10
2023-05-05T22:06:01.393Z,22.33
2023-05-05T22:08:28.371Z,26.42
2023-05-05T22:10:55.249Z,20.60
2023-05-05T22:13:22.235Z,18.17
2023-05-05T22:15:49.320Z,17.27
2023-05-05T22:18:16.296Z,17.60
2023-05-05T22:20:43.989Z,21.55
2023-05-05T22:23:10.873Z,22.20
2023-05-05T22:25:37.796Z,17.43
2023-05-05T22:28:05.034Z,21.20
2023-05-05T22:30:31.895Z,18.02
2023-05-05T22:32:58.855Z,16.37
2023-05-05T22:35:25.774Z,19.50
2023-05-05T22:37:52.719Z,18.77
2023-05-05T22:40:19.614Z,19.95
2023-05-05T22:42:46.489Z,21.67
2023-05-05T22:45:13.545Z,16.43
2023-05-05T22:47:40.779Z,21.23
2023-05-05T22:50:08.397Z,22.25
2023-05-05T22:52:35.506Z,20.27
2023-05-05T22:55:02.598Z,18.77
2023-05-05T22:57:30.523Z,18.53
2023-05-05T22:59:57.527Z,16.55
2023-05-05T23:02:26.764Z,15.33
2023-05-05T23:04:53.828Z,21.15
2023-05-05T23:07:20.877Z,18.07
2023-05-05T23:09:47.968Z,15.67
2023-05-05T23:12:15.922Z,18.10
2023-05-05T23:14:44.012Z,16.83
2023-05-05T23:17:10.900Z,15.67
2023-05-05T23:19:37.743Z,21.43
2023-05-05T23:22:04.784Z,19.40
2023-05-05T23:24:31.727Z,18.37
2023-05-05T23:26:59.670Z,16.20
2023-05-05T23:29:27.629Z,18.37
2023-05-05T23:31:54.547Z,17.30
2023-05-05T23:34:21.419Z,16.67
2023-05-05T23:36:48.338Z,17.73
2023-05-05T23:39:15.203Z,17.60
2023-05-05T23:41:44.408Z,18.20
2023-05-05T23:44:11.282Z,19.27
2023-05-05T23:46:38.288Z,18.83
2023-05-05T23:49:05.180Z,16.53
2023-05-05T23:51:32.178Z,14.07
2023-05-05T23:53:59.115Z,12.90
2023-05-05T23:56:26.384Z,12.60
2023-05-05T23:58:54.303Z,16.07
